sensor_id;sensor_type;location;lat;lon;timestamp;P1;durP1;ratioP1;P2;durP2;ratioP2
4732;SDS011;2380;53.668;10.008;2022-09-09T00:02:08;64.97;;;31.83;;
4732;SDS011;2380;53.668;10.008;2022-09-09T00:04:45;58.80;;;31.47;;
4732;SDS011;2380;53.668;10.008;2022-09-09T00:07:19;88.10;;;36.47;;
4732;SDS011;2380;53.668;10.008;2022-09-09T00:09:52;75.13;;;32.77;;
4732;SDS011;2380;53.668;10.008;2022-09-09T00:12:29;65.37;;;32.30;;
4732;SDS011;2380;53.668;10.008;2022-09-09T00:15:07;64.23;;;30.47;;
4732;SDS011;2380;53.668;10.008;2022-09-09T00:17:43;58.93;;;29.53;;
4732;SDS011;2380;53.668;10.008;2022-09-09T00:20:16;66.70;;;31.93;;
4732;SDS011;2380;53.668;10.008;2022-09-09T00:22:51;58.87;;;31.10;;
4732;SDS011;2380;53.668;10.008;2022-09-09T00:25:27;56.20;;;29.20;;
4732;SDS011;2380;53.668;10.008;2022-09-09T00:28:00;67.47;;;32.10;;
4732;SDS011;2380;53.668;10.008;2022-09-09T00:30:34;77.63;;;31.37;;
4732;SDS011;2380;53.668;10.008;2022-09-09T00:33:08;68.90;;;31.80;;
4732;SDS011;2380;53.668;10.008;2022-09-09T00:35:42;66.10;;;32.30;;
4732;SDS011;2380;53.668;10.008;2022-09-09T00:38:14;62.77;;;31.23;;
4732;SDS011;2380;53.668;10.008;2022-09-09T00:40:48;58.07;;;30.87;;
4732;SDS011;2380;53.668;10.008;2022-09-09T00:43:22;66.90;;;30.87;;
4732;SDS011;2380;53.668;10.008;2022-09-09T00:46:05;330.10;;;43.03;;
4732;SDS011;2380;53.668;10.008;2022-09-09T00:48:47;63.97;;;29.70;;
4732;SDS011;2380;53.668;10.008;2022-09-09T00:51:23;82.17;;;33.33;;
4732;SDS011;2380;53.668;10.008;2022-09-09T00:56:56;193.93;;;42.97;;
4732;SDS011;2380;53.668;10.008;2022-09-09T00:59:35;163.90;;;35.43;;
4732;SDS011;2380;53.668;10.008;2022-09-09T01:02:13;298.87;;;39.40;;
4732;SDS011;2380;53.668;10.008;2022-09-09T01:04:48;187.70;;;38.67;;
4732;SDS011;2380;53.668;10.008;2022-09-09T01:07:18;102.50;;;39.50;;
4732;SDS011;2380;53.668;10.008;2022-09-09T01:09:51;106.97;;;39.90;;
4732;SDS011;2380;53.668;10.008;2022-09-09T01:12:26;120.73;;;36.97;;
4732;SDS011;2380;53.668;10.008;2022-09-09T01:15:01;110.50;;;37.63;;
4732;SDS011;2380;53.668;10.008;2022-09-09T01:17:44;160.93;;;40.07;;
4732;SDS011;2380;53.668;10.008;2022-09-09T01:20:18;120.93;;;37.30;;
4732;SDS011;2380;53.668;10.008;2022-09-09T01:22:59;95.60;;;35.67;;
4732;SDS011;2380;53.668;10.008;2022-09-09T01:28:36;169.83;;;43.43;;
4732;SDS011;2380;53.668;10.008;2022-09-09T01:31:06;121.63;;;40.37;;
4732;SDS011;2380;53.668;10.008;2022-09-09T01:33:38;217.13;;;39.50;;
4732;SDS011;2380;53.668;10.008;2022-09-09T01:36:08;184.67;;;41.53;;
4732;SDS011;2380;53.668;10.008;2022-09-09T01:38:39;213.93;;;42.83;;
4732;SDS011;2380;53.668;10.008;2022-09-09T01:41:09;104.93;;;39.03;;
4732;SDS011;2380;53.668;10.008;2022-09-09T01:43:41;221.53;;;43.00;;
4732;SDS011;2380;53.668;10.008;2022-09-09T01:46:10;162.67;;;40.10;;
4732;SDS011;2380;53.668;10.008;2022-09-09T01:48:40;129.70;;;38.70;;
4732;SDS011;2380;53.668;10.008;2022-09-09T01:51:10;148.03;;;36.50;;
4732;SDS011;2380;53.668;10.008;2022-09-09T01:53:39;236.83;;;41.83;;
4732;SDS011;2380;53.668;10.008;2022-09-09T01:56:13;160.10;;;39.07;;
4732;SDS011;2380;53.668;10.008;2022-09-09T01:58:55;173.03;;;42.03;;
4732;SDS011;2380;53.668;10.008;2022-09-09T02:01:35;100.30;;;36.70;;
4732;SDS011;2380;53.668;10.008;2022-09-09T02:04:13;106.33;;;36.60;;
4732;SDS011;2380;53.668;10.008;2022-09-09T02:06:49;146.30;;;35.90;;
4732;SDS011;2380;53.668;10.008;2022-09-09T02:09:23;115.77;;;36.83;;
4732;SDS011;2380;53.668;10.008;2022-09-09T02:11:54;160.53;;;35.77;;
4732;SDS011;2380;53.668;10.008;2022-09-09T02:14:31;102.80;;;35.13;;
4732;SDS011;2380;53.668;10.008;2022-09-09T02:17:07;140.87;;;35.17;;
4732;SDS011;2380;53.668;10.008;2022-09-09T02:19:39;108.43;;;35.00;;
4732;SDS011;2380;53.668;10.008;2022-09-09T02:22:11;117.00;;;33.90;;
4732;SDS011;2380;53.668;10.008;2022-09-09T02:24:41;140.50;;;38.10;;
4732;SDS011;2380;53.668;10.008;2022-09-09T02:27:12;135.10;;;34.10;;
4732;SDS011;2380;53.668;10.008;2022-09-09T02:29:45;71.20;;;31.00;;
4732;SDS011;2380;53.668;10.008;2022-09-09T02:32:15;93.03;;;33.10;;
4732;SDS011;2380;53.668;10.008;2022-09-09T02:34:47;90.40;;;38.50;;
4732;SDS011;2380;53.668;10.008;2022-09-09T02:37:18;109.33;;;54.03;;
4732;SDS011;2380;53.668;10.008;2022-09-09T02:39:49;105.80;;;38.30;;
4732;SDS011;2380;53.668;10.008;2022-09-09T02:42:19;104.83;;;41.27;;
4732;SDS011;2380;53.668;10.008;2022-09-09T02:44:51;87.00;;;32.27;;
4732;SDS011;2380;53.668;10.008;2022-09-09T02:47:24;70.07;;;27.50;;
4732;SDS011;2380;53.668;10.008;2022-09-09T02:49:58;87.20;;;28.17;;
4732;SDS011;2380;53.668;10.008;2022-09-09T02:52:37;84.10;;;28.13;;
4732;SDS011;2380;53.668;10.008;2022-09-09T02:55:13;95.93;;;28.40;;
4732;SDS011;2380;53.668;10.008;2022-09-09T02:57:47;70.60;;;30.30;;
4732;SDS011;2380;53.668;10.008;2022-09-09T03:00:24;81.47;;;28.77;;
4732;SDS011;2380;53.668;10.008;2022-09-09T03:02:55;65.97;;;29.00;;
4732;SDS011;2380;53.668;10.008;2022-09-09T03:05:25;91.07;;;29.00;;
4732;SDS011;2380;53.668;10.008;2022-09-09T03:07:54;79.80;;;27.30;;
4732;SDS011;2380;53.668;10.008;2022-09-09T03:10:24;81.73;;;27.17;;
4732;SDS011;2380;53.668;10.008;2022-09-09T03:12:53;69.50;;;28.63;;
4732;SDS011;2380;53.668;10.008;2022-09-09T03:15:25;119.03;;;29.37;;
4732;SDS011;2380;53.668;10.008;2022-09-09T03:17:56;62.30;;;26.97;;
4732;SDS011;2380;53.668;10.008;2022-09-09T03:20:27;80.77;;;27.67;;
4732;SDS011;2380;53.668;10.008;2022-09-09T03:22:58;97.13;;;28.40;;
4732;SDS011;2380;53.668;10.008;2022-09-09T03:25:29;87.97;;;28.10;;
4732;SDS011;2380;53.668;10.008;2022-09-09T03:27:59;60.30;;;28.70;;
4732;SDS011;2380;53.668;10.008;2022-09-09T03:30:32;91.10;;;29.17;;
4732;SDS011;2380;53.668;10.008;2022-09-09T03:33:01;55.13;;;26.77;;
4732;SDS011;2380;53.668;10.008;2022-09-09T03:35:31;141.13;;;30.53;;
4732;SDS011;2380;53.668;10.008;2022-09-09T03:38:00;58.23;;;27.87;;
4732;SDS011;2380;53.668;10.008;2022-09-09T03:40:30;56.57;;;28.07;;
4732;SDS011;2380;53.668;10.008;2022-09-09T03:43:00;53.87;;;27.13;;
4732;SDS011;2380;53.668;10.008;2022-09-09T03:45:32;50.67;;;27.50;;
4732;SDS011;2380;53.668;10.008;2022-09-09T03:48:01;51.70;;;27.83;;
4732;SDS011;2380;53.668;10.008;2022-09-09T03:50:31;52.17;;;27.10;;
4732;SDS011;2380;53.668;10.008;2022-09-09T03:53:00;104.13;;;26.90;;
4732;SDS011;2380;53.668;10.008;2022-09-09T03:55:32;51.97;;;26.70;;
4732;SDS011;2380;53.668;10.008;2022-09-09T03:58:01;48.50;;;27.10;;
4732;SDS011;2380;53.668;10.008;2022-09-09T04:00:33;92.77;;;26.57;;
4732;SDS011;2380;53.668;10.008;2022-09-09T04:03:03;48.63;;;26.00;;
4732;SDS011;2380;53.668;10.008;2022-09-09T04:05:32;53.43;;;27.17;;
4732;SDS011;2380;53.668;10.008;2022-09-09T04:08:05;59.73;;;28.30;;
4732;SDS011;2380;53.668;10.008;2022-09-09T04:10:35;49.27;;;26.30;;
4732;SDS011;2380;53.668;10.008;2022-09-09T04:13:05;79.20;;;27.30;;
4732;SDS011;2380;53.668;10.008;2022-09-09T04:15:37;55.83;;;25.90;;
4732;SDS011;2380;53.668;10.008;2022-09-09T04:18:06;59.20;;;27.00;;
4732;SDS011;2380;53.668;10.008;2022-09-09T04:20:36;58.43;;;26.53;;
4732;SDS011;2380;53.668;10.008;2022-09-09T04:23:06;62.37;;;25.90;;
4732;SDS011;2380;53.668;10.008;2022-09-09T04:25:35;48.63;;;25.97;;
4732;SDS011;2380;53.668;10.008;2022-09-09T04:28:05;55.10;;;28.07;;
4732;SDS011;2380;53.668;10.008;2022-09-09T04:30:37;55.17;;;26.77;;
4732;SDS011;2380;53.668;10.008;2022-09-09T04:33:06;60.60;;;26.53;;
4732;SDS011;2380;53.668;10.008;2022-09-09T04:35:36;48.50;;;26.37;;
4732;SDS011;2380;53.668;10.008;2022-09-09T04:38:07;52.97;;;26.17;;
4732;SDS011;2380;53.668;10.008;2022-09-09T04:40:36;51.43;;;27.50;;
4732;SDS011;2380;53.668;10.008;2022-09-09T04:43:09;51.70;;;26.90;;
4732;SDS011;2380;53.668;10.008;2022-09-09T04:45:42;50.30;;;25.30;;
4732;SDS011;2380;53.668;10.008;2022-09-09T04:48:13;48.43;;;25.53;;
4732;SDS011;2380;53.668;10.008;2022-09-09T04:50:42;65.00;;;28.63;;
4732;SDS011;2380;53.668;10.008;2022-09-09T04:53:12;61.53;;;27.77;;
4732;SDS011;2380;53.668;10.008;2022-09-09T04:55:41;75.97;;;28.77;;
4732;SDS011;2380;53.668;10.008;2022-09-09T04:58:11;54.03;;;27.43;;
4732;SDS011;2380;53.668;10.008;2022-09-09T05:00:43;59.40;;;26.67;;
4732;SDS011;2380;53.668;10.008;2022-09-09T05:03:12;52.50;;;26.67;;
4732;SDS011;2380;53.668;10.008;2022-09-09T05:05:42;46.30;;;25.13;;
4732;SDS011;2380;53.668;10.008;2022-09-09T05:08:11;52.80;;;25.00;;
4732;SDS011;2380;53.668;10.008;2022-09-09T05:10:41;53.80;;;25.67;;
4732;SDS011;2380;53.668;10.008;2022-09-09T05:13:10;50.83;;;24.93;;
4732;SDS011;2380;53.668;10.008;2022-09-09T05:15:42;46.03;;;25.00;;
4732;SDS011;2380;53.668;10.008;2022-09-09T05:18:20;43.10;;;22.20;;
4732;SDS011;2380;53.668;10.008;2022-09-09T05:20:50;43.50;;;23.37;;
4732;SDS011;2380;53.668;10.008;2022-09-09T05:23:20;41.63;;;21.43;;
4732;SDS011;2380;53.668;10.008;2022-09-09T05:25:55;39.20;;;20.80;;
4732;SDS011;2380;53.668;10.008;2022-09-09T05:28:25;38.10;;;21.37;;
4732;SDS011;2380;53.668;10.008;2022-09-09T05:31:01;39.37;;;21.37;;
4732;SDS011;2380;53.668;10.008;2022-09-09T05:33:34;40.30;;;19.30;;
4732;SDS011;2380;53.668;10.008;2022-09-09T05:36:07;33.23;;;20.03;;
4732;SDS011;2380;53.668;10.008;2022-09-09T05:38:39;38.37;;;20.73;;
4732;SDS011;2380;53.668;10.008;2022-09-09T05:41:09;31.70;;;18.67;;
4732;SDS011;2380;53.668;10.008;2022-09-09T05:43:41;38.83;;;20.13;;
4732;SDS011;2380;53.668;10.008;2022-09-09T05:46:16;31.67;;;19.60;;
4732;SDS011;2380;53.668;10.008;2022-09-09T05:48:46;34.17;;;18.87;;
4732;SDS011;2380;53.668;10.008;2022-09-09T05:51:17;33.33;;;19.03;;
4732;SDS011;2380;53.668;10.008;2022-09-09T05:53:48;114.37;;;76.40;;
4732;SDS011;2380;53.668;10.008;2022-09-09T05:56:18;25.97;;;17.10;;
4732;SDS011;2380;53.668;10.008;2022-09-09T05:58:50;26.17;;;16.40;;
4732;SDS011;2380;53.668;10.008;2022-09-09T06:01:23;27.70;;;17.00;;
4732;SDS011;2380;53.668;10.008;2022-09-09T06:03:53;27.17;;;16.67;;
4732;SDS011;2380;53.668;10.008;2022-09-09T06:06:23;33.03;;;21.40;;
4732;SDS011;2380;53.668;10.008;2022-09-09T06:08:55;28.17;;;18.47;;
4732;SDS011;2380;53.668;10.008;2022-09-09T06:11:26;25.80;;;15.60;;
4732;SDS011;2380;53.668;10.008;2022-09-09T06:13:57;36.27;;;18.30;;
4732;SDS011;2380;53.668;10.008;2022-09-09T06:16:29;26.97;;;17.50;;
4732;SDS011;2380;53.668;10.008;2022-09-09T06:19:00;30.63;;;16.23;;
4732;SDS011;2380;53.668;10.008;2022-09-09T06:21:31;22.33;;;14.27;;
4732;SDS011;2380;53.668;10.008;2022-09-09T06:24:03;22.17;;;15.53;;
4732;SDS011;2380;53.668;10.008;2022-09-09T06:26:34;23.67;;;14.83;;
4732;SDS011;2380;53.668;10.008;2022-09-09T06:29:04;23.70;;;14.90;;
4732;SDS011;2380;53.668;10.008;2022-09-09T06:31:36;28.10;;;15.27;;
4732;SDS011;2380;53.668;10.008;2022-09-09T06:34:08;22.30;;;14.83;;
4732;SDS011;2380;53.668;10.008;2022-09-09T06:36:38;21.47;;;13.03;;
4732;SDS011;2380;53.668;10.008;2022-09-09T06:39:07;21.33;;;14.70;;
4732;SDS011;2380;53.668;10.008;2022-09-09T06:41:40;19.70;;;14.03;;
4732;SDS011;2380;53.668;10.008;2022-09-09T06:44:10;21.30;;;14.33;;
4732;SDS011;2380;53.668;10.008;2022-09-09T06:46:44;23.47;;;14.83;;
4732;SDS011;2380;53.668;10.008;2022-09-09T06:49:14;23.13;;;15.70;;
4732;SDS011;2380;53.668;10.008;2022-09-09T06:51:43;26.63;;;14.77;;
4732;SDS011;2380;53.668;10.008;2022-09-09T06:54:13;29.20;;;16.10;;
4732;SDS011;2380;53.668;10.008;2022-09-09T06:56:42;23.13;;;13.63;;
4732;SDS011;2380;53.668;10.008;2022-09-09T06:59:11;23.40;;;14.23;;
4732;SDS011;2380;53.668;10.008;2022-09-09T07:01:43;23.67;;;16.07;;
4732;SDS011;2380;53.668;10.008;2022-09-09T07:04:18;22.20;;;12.87;;
4732;SDS011;2380;53.668;10.008;2022-09-09T07:06:48;23.10;;;12.83;;
4732;SDS011;2380;53.668;10.008;2022-09-09T07:09:18;22.27;;;13.00;;
4732;SDS011;2380;53.668;10.008;2022-09-09T07:11:48;18.67;;;12.30;;
4732;SDS011;2380;53.668;10.008;2022-09-09T07:14:19;20.03;;;11.87;;
4732;SDS011;2380;53.668;10.008;2022-09-09T07:16:51;20.30;;;11.73;;
4732;SDS011;2380;53.668;10.008;2022-09-09T07:19:25;22.50;;;12.03;;
4732;SDS011;2380;53.668;10.008;2022-09-09T07:21:54;17.97;;;11.33;;
4732;SDS011;2380;53.668;10.008;2022-09-09T07:24:24;18.87;;;12.00;;
4732;SDS011;2380;53.668;10.008;2022-09-09T07:26:56;16.10;;;10.57;;
4732;SDS011;2380;53.668;10.008;2022-09-09T07:29:26;15.60;;;10.60;;
4732;SDS011;2380;53.668;10.008;2022-09-09T07:31:58;17.27;;;9.90;;
4732;SDS011;2380;53.668;10.008;2022-09-09T07:34:28;16.93;;;10.60;;
4732;SDS011;2380;53.668;10.008;2022-09-09T07:36:58;16.63;;;10.30;;
4732;SDS011;2380;53.668;10.008;2022-09-09T07:39:27;12.83;;;9.23;;
4732;SDS011;2380;53.668;10.008;2022-09-09T07:41:57;16.30;;;9.73;;
4732;SDS011;2380;53.668;10.008;2022-09-09T07:44:26;13.77;;;10.00;;
4732;SDS011;2380;53.668;10.008;2022-09-09T07:46:58;15.87;;;10.13;;
4732;SDS011;2380;53.668;10.008;2022-09-09T07:49:27;29.43;;;19.93;;
4732;SDS011;2380;53.668;10.008;2022-09-09T07:51:58;16.07;;;10.50;;
4732;SDS011;2380;53.668;10.008;2022-09-09T07:54:28;16.17;;;9.30;;
4732;SDS011;2380;53.668;10.008;2022-09-09T07:56:58;14.10;;;10.17;;
4732;SDS011;2380;53.668;10.008;2022-09-09T07:59:30;18.13;;;9.97;;
4732;SDS011;2380;53.668;10.008;2022-09-09T08:02:02;9.30;;;8.27;;
4732;SDS011;2380;53.668;10.008;2022-09-09T08:04:32;23.13;;;15.30;;
4732;SDS011;2380;53.668;10.008;2022-09-09T08:07:02;10.73;;;7.70;;
4732;SDS011;2380;53.668;10.008;2022-09-09T08:09:32;10.27;;;7.10;;
4732;SDS011;2380;53.668;10.008;2022-09-09T08:12:02;9.77;;;6.20;;
4732;SDS011;2380;53.668;10.008;2022-09-09T08:14:32;12.50;;;6.00;;
4732;SDS011;2380;53.668;10.008;2022-09-09T08:17:04;6.30;;;5.30;;
4732;SDS011;2380;53.668;10.008;2022-09-09T08:19:34;12.50;;;4.80;;
4732;SDS011;2380;53.668;10.008;2022-09-09T08:22:03;8.03;;;4.50;;
4732;SDS011;2380;53.668;10.008;2022-09-09T08:24:33;8.33;;;4.13;;
4732;SDS011;2380;53.668;10.008;2022-09-09T08:27:03;9.87;;;4.53;;
4732;SDS011;2380;53.668;10.008;2022-09-09T08:29:32;8.20;;;5.03;;
4732;SDS011;2380;53.668;10.008;2022-09-09T08:32:06;9.33;;;5.17;;
4732;SDS011;2380;53.668;10.008;2022-09-09T08:34:36;8.83;;;5.33;;
4732;SDS011;2380;53.668;10.008;2022-09-09T08:37:06;7.80;;;4.53;;
4732;SDS011;2380;53.668;10.008;2022-09-09T08:39:36;8.37;;;5.23;;
4732;SDS011;2380;53.668;10.008;2022-09-09T08:47:56;11.10;;;4.57;;
4732;SDS011;2380;53.668;10.008;2022-09-09T08:50:32;7.40;;;4.27;;
4732;SDS011;2380;53.668;10.008;2022-09-09T08:53:05;9.33;;;4.00;;
4732;SDS011;2380;53.668;10.008;2022-09-09T08:55:40;9.07;;;4.40;;
4732;SDS011;2380;53.668;10.008;2022-09-09T08:58:14;13.40;;;4.07;;
4732;SDS011;2380;53.668;10.008;2022-09-09T09:00:57;5.30;;;4.13;;
4732;SDS011;2380;53.668;10.008;2022-09-09T09:03:38;5.60;;;3.63;;
4732;SDS011;2380;53.668;10.008;2022-09-09T09:06:15;6.80;;;3.53;;
4732;SDS011;2380;53.668;10.008;2022-09-09T09:08:55;6.50;;;3.67;;
4732;SDS011;2380;53.668;10.008;2022-09-09T09:11:33;6.30;;;3.27;;
4732;SDS011;2380;53.668;10.008;2022-09-09T09:14:07;9.10;;;2.97;;
4732;SDS011;2380;53.668;10.008;2022-09-09T09:16:41;6.40;;;3.00;;
4732;SDS011;2380;53.668;10.008;2022-09-09T09:19:17;7.23;;;3.30;;
4732;SDS011;2380;53.668;10.008;2022-09-09T09:21:50;5.23;;;2.67;;
4732;SDS011;2380;53.668;10.008;2022-09-09T09:24:24;8.43;;;3.13;;
4732;SDS011;2380;53.668;10.008;2022-09-09T09:26:58;7.40;;;3.63;;
4732;SDS011;2380;53.668;10.008;2022-09-09T09:29:29;6.93;;;3.43;;
4732;SDS011;2380;53.668;10.008;2022-09-09T09:32:16;6.60;;;3.70;;
4732;SDS011;2380;53.668;10.008;2022-09-09T09:34:51;7.80;;;4.20;;
4732;SDS011;2380;53.668;10.008;2022-09-09T09:37:23;7.67;;;4.57;;
4732;SDS011;2380;53.668;10.008;2022-09-09T09:39:56;9.93;;;4.87;;
4732;SDS011;2380;53.668;10.008;2022-09-09T09:42:37;9.90;;;3.80;;
4732;SDS011;2380;53.668;10.008;2022-09-09T09:45:08;8.80;;;4.47;;
4732;SDS011;2380;53.668;10.008;2022-09-09T09:47:41;12.43;;;4.00;;
4732;SDS011;2380;53.668;10.008;2022-09-09T09:50:19;5.20;;;2.30;;
4732;SDS011;2380;53.668;10.008;2022-09-09T09:52:53;6.40;;;2.10;;
4732;SDS011;2380;53.668;10.008;2022-09-09T09:55:23;6.37;;;3.13;;
4732;SDS011;2380;53.668;10.008;2022-09-09T09:57:53;6.90;;;2.63;;
4732;SDS011;2380;53.668;10.008;2022-09-09T10:00:23;5.03;;;2.27;;
4732;SDS011;2380;53.668;10.008;2022-09-09T10:02:54;6.57;;;3.10;;
4732;SDS011;2380;53.668;10.008;2022-09-09T10:05:26;8.83;;;4.20;;
4732;SDS011;2380;53.668;10.008;2022-09-09T10:08:05;8.10;;;4.00;;
4732;SDS011;2380;53.668;10.008;2022-09-09T10:10:46;9.60;;;4.40;;
4732;SDS011;2380;53.668;10.008;2022-09-09T10:13:53;6.73;;;3.90;;
4732;SDS011;2380;53.668;10.008;2022-09-09T10:16:33;8.00;;;3.47;;
4732;SDS011;2380;53.668;10.008;2022-09-09T10:19:12;6.37;;;3.20;;
4732;SDS011;2380;53.668;10.008;2022-09-09T10:24:48;5.87;;;2.70;;
4732;SDS011;2380;53.668;10.008;2022-09-09T10:27:29;4.20;;;2.60;;
4732;SDS011;2380;53.668;10.008;2022-09-09T10:30:09;4.40;;;2.20;;
4732;SDS011;2380;53.668;10.008;2022-09-09T10:32:46;5.53;;;2.37;;
4732;SDS011;2380;53.668;10.008;2022-09-09T10:35:24;4.30;;;2.13;;
4732;SDS011;2380;53.668;10.008;2022-09-09T10:41:00;9.37;;;2.40;;
4732;SDS011;2380;53.668;10.008;2022-09-09T10:43:39;3.20;;;1.80;;
4732;SDS011;2380;53.668;10.008;2022-09-09T10:46:19;4.73;;;1.80;;
4732;SDS011;2380;53.668;10.008;2022-09-09T10:48:56;4.20;;;2.47;;
4732;SDS011;2380;53.668;10.008;2022-09-09T10:51:33;7.83;;;2.00;;
4732;SDS011;2380;53.668;10.008;2022-09-09T10:54:17;6.07;;;2.57;;
4732;SDS011;2380;53.668;10.008;2022-09-09T10:56:55;11.60;;;6.77;;
4732;SDS011;2380;53.668;10.008;2022-09-09T10:59:27;4.80;;;1.80;;
4732;SDS011;2380;53.668;10.008;2022-09-09T11:01:59;3.40;;;1.70;;
4732;SDS011;2380;53.668;10.008;2022-09-09T11:04:33;9.43;;;5.47;;
4732;SDS011;2380;53.668;10.008;2022-09-09T11:07:05;3.67;;;1.50;;
4732;SDS011;2380;53.668;10.008;2022-09-09T11:09:41;5.90;;;1.60;;
4732;SDS011;2380;53.668;10.008;2022-09-09T11:12:15;2.87;;;1.70;;
4732;SDS011;2380;53.668;10.008;2022-09-09T11:14:48;2.70;;;1.70;;
4732;SDS011;2380;53.668;10.008;2022-09-09T11:17:22;8.10;;;3.97;;
4732;SDS011;2380;53.668;10.008;2022-09-09T11:19:53;5.43;;;2.10;;
4732;SDS011;2380;53.668;10.008;2022-09-09T11:22:25;5.03;;;3.80;;
4732;SDS011;2380;53.668;10.008;2022-09-09T11:25:01;9.80;;;4.23;;
4732;SDS011;2380;53.668;10.008;2022-09-09T11:27:36;7.73;;;4.87;;
4732;SDS011;2380;53.668;10.008;2022-09-09T11:30:14;6.53;;;1.87;;
4732;SDS011;2380;53.668;10.008;2022-09-09T11:33:09;7.30;;;2.13;;
4732;SDS011;2380;53.668;10.008;2022-09-09T11:36:06;3.20;;;1.40;;
4732;SDS011;2380;53.668;10.008;2022-09-09T11:38:46;5.80;;;2.93;;
4732;SDS011;2380;53.668;10.008;2022-09-09T11:41:20;5.60;;;1.80;;
4732;SDS011;2380;53.668;10.008;2022-09-09T11:43:51;5.93;;;2.20;;
4732;SDS011;2380;53.668;10.008;2022-09-09T11:46:22;16.83;;;12.03;;
4732;SDS011;2380;53.668;10.008;2022-09-09T11:49:01;4.70;;;1.80;;
4732;SDS011;2380;53.668;10.008;2022-09-09T11:51:32;9.80;;;1.70;;
4732;SDS011;2380;53.668;10.008;2022-09-09T11:54:03;7.70;;;4.23;;
4732;SDS011;2380;53.668;10.008;2022-09-09T11:57:02;5.80;;;1.60;;
4732;SDS011;2380;53.668;10.008;2022-09-09T11:59:32;5.87;;;2.57;;
4732;SDS011;2380;53.668;10.008;2022-09-09T12:02:02;6.87;;;2.40;;
4732;SDS011;2380;53.668;10.008;2022-09-09T12:04:37;9.70;;;3.47;;
4732;SDS011;2380;53.668;10.008;2022-09-09T12:07:21;3.97;;;1.90;;
4732;SDS011;2380;53.668;10.008;2022-09-09T12:09:56;5.17;;;2.00;;
4732;SDS011;2380;53.668;10.008;2022-09-09T12:12:31;4.70;;;1.63;;
4732;SDS011;2380;53.668;10.008;2022-09-09T12:15:19;8.40;;;3.77;;
4732;SDS011;2380;53.668;10.008;2022-09-09T12:17:55;5.17;;;2.00;;
4732;SDS011;2380;53.668;10.008;2022-09-09T12:20:33;4.90;;;2.30;;
4732;SDS011;2380;53.668;10.008;2022-09-09T12:26:01;5.50;;;1.50;;
4732;SDS011;2380;53.668;10.008;2022-09-09T12:28:44;3.10;;;1.60;;
4732;SDS011;2380;53.668;10.008;2022-09-09T12:31:21;6.50;;;1.97;;
4732;SDS011;2380;53.668;10.008;2022-09-09T12:33:54;4.63;;;1.77;;
4732;SDS011;2380;53.668;10.008;2022-09-09T12:36:25;5.83;;;1.87;;
4732;SDS011;2380;53.668;10.008;2022-09-09T12:38:57;7.23;;;2.00;;
4732;SDS011;2380;53.668;10.008;2022-09-09T12:41:28;5.30;;;1.63;;
4732;SDS011;2380;53.668;10.008;2022-09-09T12:44:05;5.80;;;1.60;;
4732;SDS011;2380;53.668;10.008;2022-09-09T12:46:38;10.50;;;1.97;;
4732;SDS011;2380;53.668;10.008;2022-09-09T12:49:20;5.80;;;2.20;;
4732;SDS011;2380;53.668;10.008;2022-09-09T12:51:55;5.27;;;2.00;;
4732;SDS011;2380;53.668;10.008;2022-09-09T12:54:26;4.30;;;1.90;;
4732;SDS011;2380;53.668;10.008;2022-09-09T12:56:55;4.80;;;2.13;;
4732;SDS011;2380;53.668;10.008;2022-09-09T12:59:35;5.10;;;2.00;;
4732;SDS011;2380;53.668;10.008;2022-09-09T13:04:51;4.23;;;2.50;;
4732;SDS011;2380;53.668;10.008;2022-09-09T13:07:22;5.20;;;3.40;;
4732;SDS011;2380;53.668;10.008;2022-09-09T13:09:52;7.00;;;3.00;;
4732;SDS011;2380;53.668;10.008;2022-09-09T13:12:22;6.43;;;2.63;;
4732;SDS011;2380;53.668;10.008;2022-09-09T13:14:54;7.63;;;2.80;;
4732;SDS011;2380;53.668;10.008;2022-09-09T13:17:25;7.33;;;4.20;;
4732;SDS011;2380;53.668;10.008;2022-09-09T13:19:56;18.27;;;8.60;;
4732;SDS011;2380;53.668;10.008;2022-09-09T13:22:28;12.67;;;6.50;;
4732;SDS011;2380;53.668;10.008;2022-09-09T13:25:04;11.93;;;6.90;;
4732;SDS011;2380;53.668;10.008;2022-09-09T13:27:36;12.50;;;5.53;;
4732;SDS011;2380;53.668;10.008;2022-09-09T13:30:22;14.27;;;6.37;;
4732;SDS011;2380;53.668;10.008;2022-09-09T13:33:00;26.23;;;11.33;;
4732;SDS011;2380;53.668;10.008;2022-09-09T13:35:33;16.07;;;9.73;;
4732;SDS011;2380;53.668;10.008;2022-09-09T13:38:06;8.17;;;5.30;;
4732;SDS011;2380;53.668;10.008;2022-09-09T13:40:37;5.57;;;4.10;;
4732;SDS011;2380;53.668;10.008;2022-09-09T13:43:10;8.80;;;4.30;;
4732;SDS011;2380;53.668;10.008;2022-09-09T13:45:54;8.43;;;4.70;;
4732;SDS011;2380;53.668;10.008;2022-09-09T13:48:25;13.70;;;5.87;;
4732;SDS011;2380;53.668;10.008;2022-09-09T13:50:57;6.50;;;3.90;;
4732;SDS011;2380;53.668;10.008;2022-09-09T13:53:28;7.40;;;4.67;;
4732;SDS011;2380;53.668;10.008;2022-09-09T13:55:58;11.40;;;5.47;;
4732;SDS011;2380;53.668;10.008;2022-09-09T13:58:27;11.67;;;5.60;;
4732;SDS011;2380;53.668;10.008;2022-09-09T14:00:59;17.13;;;7.00;;
4732;SDS011;2380;53.668;10.008;2022-09-09T14:03:29;13.33;;;7.43;;
4732;SDS011;2380;53.668;10.008;2022-09-09T14:06:00;9.60;;;7.70;;
4732;SDS011;2380;53.668;10.008;2022-09-09T14:08:29;12.00;;;7.13;;
4732;SDS011;2380;53.668;10.008;2022-09-09T14:11:03;7.83;;;5.10;;
4732;SDS011;2380;53.668;10.008;2022-09-09T14:13:33;9.10;;;5.90;;
4732;SDS011;2380;53.668;10.008;2022-09-09T14:16:06;9.83;;;7.60;;
4732;SDS011;2380;53.668;10.008;2022-09-09T14:18:36;9.23;;;7.67;;
4732;SDS011;2380;53.668;10.008;2022-09-09T14:21:06;13.33;;;7.57;;
4732;SDS011;2380;53.668;10.008;2022-09-09T14:23:36;14.33;;;8.93;;
4732;SDS011;2380;53.668;10.008;2022-09-09T14:26:06;11.67;;;8.50;;
4732;SDS011;2380;53.668;10.008;2022-09-09T14:28:36;14.20;;;8.17;;
4732;SDS011;2380;53.668;10.008;2022-09-09T14:31:24;17.10;;;9.83;;
4732;SDS011;2380;53.668;10.008;2022-09-09T14:33:54;15.80;;;9.70;;
4732;SDS011;2380;53.668;10.008;2022-09-09T14:36:23;16.80;;;9.83;;
4732;SDS011;2380;53.668;10.008;2022-09-09T14:38:53;41.00;;;28.83;;
4732;SDS011;2380;53.668;10.008;2022-09-09T14:41:23;70.83;;;45.63;;
4732;SDS011;2380;53.668;10.008;2022-09-09T14:43:53;18.03;;;12.00;;
4732;SDS011;2380;53.668;10.008;2022-09-09T14:46:25;39.07;;;23.53;;
4732;SDS011;2380;53.668;10.008;2022-09-09T14:48:55;61.73;;;41.23;;
4732;SDS011;2380;53.668;10.008;2022-09-09T14:51:25;30.07;;;19.97;;
4732;SDS011;2380;53.668;10.008;2022-09-09T14:53:56;17.93;;;11.30;;
4732;SDS011;2380;53.668;10.008;2022-09-09T14:56:29;23.03;;;15.83;;
4732;SDS011;2380;53.668;10.008;2022-09-09T14:59:00;33.63;;;22.13;;
4732;SDS011;2380;53.668;10.008;2022-09-09T15:01:32;18.70;;;13.33;;
4732;SDS011;2380;53.668;10.008;2022-09-09T15:04:03;21.10;;;15.90;;
4732;SDS011;2380;53.668;10.008;2022-09-09T15:06:34;56.83;;;34.20;;
4732;SDS011;2380;53.668;10.008;2022-09-09T15:09:05;70.47;;;42.03;;
4732;SDS011;2380;53.668;10.008;2022-09-09T15:11:35;13.50;;;11.00;;
4732;SDS011;2380;53.668;10.008;2022-09-09T15:14:06;21.30;;;15.90;;
4732;SDS011;2380;53.668;10.008;2022-09-09T15:16:40;21.97;;;14.37;;
4732;SDS011;2380;53.668;10.008;2022-09-09T15:19:10;10.40;;;7.00;;
4732;SDS011;2380;53.668;10.008;2022-09-09T15:21:39;14.20;;;9.77;;
4732;SDS011;2380;53.668;10.008;2022-09-09T15:24:09;19.77;;;12.50;;
4732;SDS011;2380;53.668;10.008;2022-09-09T15:26:40;12.63;;;8.77;;
4732;SDS011;2380;53.668;10.008;2022-09-09T15:29:09;12.57;;;9.10;;
4732;SDS011;2380;53.668;10.008;2022-09-09T15:31:41;6.80;;;6.07;;
4732;SDS011;2380;53.668;10.008;2022-09-09T15:34:10;10.73;;;5.60;;
4732;SDS011;2380;53.668;10.008;2022-09-09T15:36:40;9.33;;;5.83;;
4732;SDS011;2380;53.668;10.008;2022-09-09T15:39:12;21.23;;;12.10;;
4732;SDS011;2380;53.668;10.008;2022-09-09T15:41:43;7.97;;;5.63;;